Time;durP1;ratioP1;P1;durP2;ratioP2;P2;SDS_P1;SDS_P2;PMS_P1;PMS_P2;Temp;Humidity;BMP_temperature;BMP_pressure;BME280_temperature;BME280_humidity;BME280_pressure;Samples;Min_cycle;Max_cycle;Signal;HPM_P1;HPM_P2
2022/03/10 00:02:06;;;;;;;25.13;13.88;;;3.20;99.90;;;;;;4997291;28;20180;-77
2022/03/10 00:04:33;;;;;;;26.00;13.88;;;3.20;99.90;;;;;;4997284;28;20042;-77
2022/03/10 00:07:02;;;;;;;26.15;13.43;;;3.20;99.90;;;;;;4997266;28;20053;-77
2022/03/10 00:09:32;;;;;;;22.77;13.30;;;3.10;99.90;;;;;;4997287;28;20046;-77
2022/03/10 00:11:59;;;;;;;24.35;13.68;;;3.10;99.90;;;;;;4997122;28;20088;-77
2022/03/10 00:14:25;;;;;;;23.40;13.77;;;3.10;99.90;;;;;;5014697;28;20037;-77
2022/03/10 00:16:50;;;;;;;22.58;14.10;;;3.10;99.90;;;;;;4997182;28;20050;-77
2022/03/10 00:19:16;;;;;;;24.38;14.70;;;3.10;99.90;;;;;;4996823;28;20061;-77
2022/03/10 00:21:46;;;;;;;28.73;14.38;;;3.00;99.90;;;;;;4996847;28;20056;-77
2022/03/10 00:24:12;;;;;;;28.50;15.18;;;3.00;99.90;;;;;;4996776;28;20049;-77
2022/03/10 00:26:38;;;;;;;35.90;19.83;;;3.00;99.90;;;;;;4996862;28;20125;-77
2022/03/10 00:29:05;;;;;;;54.53;28.75;;;2.90;99.90;;;;;;4996682;28;20149;-77
2022/03/10 00:31:31;;;;;;;33.60;18.45;;;2.90;99.90;;;;;;4996988;28;20046;-76
2022/03/10 00:33:57;;;;;;;35.97;17.13;;;2.90;99.90;;;;;;4996848;28;20124;-77
2022/03/10 00:36:23;;;;;;;31.20;15.88;;;2.90;99.90;;;;;;4996690;28;20137;-76
2022/03/10 00:38:49;;;;;;;30.88;18.05;;;2.90;99.90;;;;;;4996848;28;20041;-77
2022/03/10 00:41:15;;;;;;;30.27;15.90;;;2.90;99.90;;;;;;4996660;28;20038;-77
2022/03/10 00:43:41;;;;;;;24.83;14.93;;;2.90;99.90;;;;;;4997008;28;20096;-77
2022/03/10 00:46:06;;;;;;;29.05;16.38;;;2.90;99.90;;;;;;4996508;28;20393;-77
2022/03/10 00:48:32;;;;;;;23.55;14.90;;;2.90;99.90;;;;;;4996395;28;20087;-77
2022/03/10 00:50:58;;;;;;;23.77;14.07;;;3.00;99.90;;;;;;4996971;28;20046;-77
2022/03/10 00:53:23;;;;;;;22.48;13.07;;;2.90;99.90;;;;;;4996306;28;20053;-77
2022/03/10 00:55:49;;;;;;;23.02;13.73;;;2.90;99.90;;;;;;4996592;28;20057;-77
2022/03/10 00:58:15;;;;;;;24.58;14.18;;;3.00;99.90;;;;;;4996692;28;20569;-77
2022/03/10 01:00:40;;;;;;;25.85;14.52;;;2.90;99.90;;;;;;4996380;28;20060;-77
2022/03/10 01:03:06;;;;;;;24.38;13.55;;;2.90;99.90;;;;;;4996120;28;20052;-77
2022/03/10 01:05:32;;;;;;;23.98;13.07;;;2.90;99.90;;;;;;4996132;28;20042;-77
2022/03/10 01:07:58;;;;;;;23.05;13.55;;;2.90;99.90;;;;;;4996280;28;20046;-77
2022/03/10 01:10:24;;;;;;;25.20;13.35;;;2.90;99.90;;;;;;4996250;28;20049;-77
2022/03/10 01:12:49;;;;;;;25.92;13.95;;;3.00;99.90;;;;;;4996561;28;20046;-76
2022/03/10 01:15:17;;;;;;;28.83;14.30;;;3.00;99.90;;;;;;4996550;28;20050;-77
2022/03/10 01:17:44;;;;;;;26.75;14.32;;;3.00;99.90;;;;;;4995938;28;20133;-77
2022/03/10 01:20:10;;;;;;;24.40;14.18;;;3.00;99.90;;;;;;4996423;28;20056;-77
2022/03/10 01:22:36;;;;;;;23.38;12.93;;;3.00;99.90;;;;;;5013733;28;20390;-77
2022/03/10 01:25:04;;;;;;;22.77;13.63;;;3.00;99.90;;;;;;4996152;28;20477;-77
2022/03/10 01:27:29;;;;;;;22.92;13.20;;;3.00;99.90;;;;;;4995847;28;20072;-77
2022/03/10 01:29:55;;;;;;;26.63;13.82;;;3.00;99.90;;;;;;4996722;28;20045;-77
2022/03/10 01:32:21;;;;;;;25.88;13.20;;;3.00;99.90;;;;;;4996216;28;20092;-77
2022/03/10 01:34:46;;;;;;;21.88;12.77;;;3.00;99.90;;;;;;4995892;28;20042;-77
2022/03/10 01:37:12;;;;;;;24.63;14.43;;;3.00;99.90;;;;;;4996083;28;20056;-77
2022/03/10 01:39:37;;;;;;;23.30;14.13;;;3.00;99.90;;;;;;4996299;28;20125;-77
2022/03/10 01:42:06;;;;;;;26.20;14.73;;;3.10;99.90;;;;;;4996325;28;20116;-77
2022/03/10 01:44:36;;;;;;;25.30;14.73;;;3.00;99.90;;;;;;4995916;28;20128;-77
2022/03/10 01:47:02;;;;;;;24.33;13.80;;;3.00;99.90;;;;;;4995875;28;20054;-77
2022/03/10 01:49:28;;;;;;;24.48;13.68;;;3.00;99.90;;;;;;5013355;28;20385;-77
2022/03/10 01:51:54;;;;;;;23.38;13.27;;;3.00;99.90;;;;;;4996173;28;20049;-77
2022/03/10 01:54:20;;;;;;;22.42;13.52;;;3.00;99.90;;;;;;4995864;28;20041;-77
2022/03/10 01:56:47;;;;;;;22.05;12.40;;;3.00;99.90;;;;;;4995902;28;20041;-77
2022/03/10 01:59:14;;;;;;;23.27;14.02;;;3.00;99.90;;;;;;4995680;28;20046;-77
2022/03/10 02:01:40;;;;;;;23.02;12.95;;;2.90;99.90;;;;;;4995733;28;20046;-77
2022/03/10 02:04:05;;;;;;;24.45;12.88;;;2.90;99.90;;;;;;4995758;28;20050;-77
2022/03/10 02:06:32;;;;;;;23.23;13.52;;;2.90;99.90;;;;;;4995692;28;20046;-77
2022/03/10 02:11:42;;;;;;;28.52;13.32;;;2.80;99.90;;;;;;4995580;28;20057;-76
2022/03/10 02:19:36;;;;;;;30.08;15.45;;;2.70;99.90;;;;;;4999197;28;20111;-76
2022/03/10 02:22:10;;;;;;;24.65;14.98;;;2.70;99.90;;;;;;4999873;28;20439;-76
2022/03/10 02:24:37;;;;;;;28.77;15.00;;;2.70;99.90;;;;;;4999251;28;20050;-76
2022/03/10 02:27:26;;;;;;;27.30;14.43;;;2.60;99.90;;;;;;4998961;28;20367;-77
2022/03/10 02:29:55;;;;;;;24.25;14.40;;;2.60;99.90;;;;;;4998990;28;20085;-77
2022/03/10 02:32:21;;;;;;;25.35;14.32;;;2.60;99.90;;;;;;4998917;28;20077;-77
2022/03/10 02:34:47;;;;;;;24.23;12.88;;;2.60;99.90;;;;;;5016402;28;20088;-83
2022/03/10 02:37:14;;;;;;;30.92;16.13;;;2.50;99.90;;;;;;4998927;28;20050;-82
2022/03/10 02:39:40;;;;;;;28.42;15.48;;;2.50;99.90;;;;;;4998794;28;20038;-82
2022/03/10 02:42:07;;;;;;;25.48;13.57;;;2.40;99.90;;;;;;4998854;28;20046;-82
2022/03/10 02:44:33;;;;;;;20.80;12.65;;;2.50;99.90;;;;;;4998843;28;20444;-82
2022/03/10 02:46:58;;;;;;;25.33;14.27;;;2.40;99.90;;;;;;4998754;28;20049;-82
2022/03/10 02:49:24;;;;;;;24.70;13.50;;;2.40;99.90;;;;;;4998550;28;20046;-77
2022/03/10 02:51:50;;;;;;;22.77;12.57;;;2.40;99.90;;;;;;4998516;28;20057;-76
2022/03/10 02:54:17;;;;;;;25.23;13.85;;;2.40;99.90;;;;;;4998815;28;20042;-77
2022/03/10 02:56:43;;;;;;;27.90;13.10;;;2.40;99.90;;;;;;4998384;28;20044;-82
2022/03/10 02:59:10;;;;;;;27.33;15.88;;;2.30;99.90;;;;;;4998703;28;20046;-83
2022/03/10 03:01:36;;;;;;;32.03;16.58;;;2.30;99.90;;;;;;4998325;28;20042;-82
2022/03/10 03:04:02;;;;;;;30.90;18.90;;;2.30;99.90;;;;;;4998185;28;20046;-82
2022/03/10 03:06:28;;;;;;;29.40;16.02;;;2.30;99.90;;;;;;4998350;28;20038;-82
2022/03/10 03:08:53;;;;;;;29.33;16.25;;;2.30;99.90;;;;;;4998279;28;20038;-82
2022/03/10 03:11:19;;;;;;;29.35;17.23;;;2.30;99.90;;;;;;4998234;28;20046;-82
2022/03/10 03:13:44;;;;;;;28.35;16.58;;;2.20;99.90;;;;;;4998052;28;20504;-81
2022/03/10 03:16:10;;;;;;;31.15;17.50;;;2.20;99.90;;;;;;4997931;28;20070;-82
2022/03/10 03:18:35;;;;;;;25.02;14.35;;;2.30;99.90;;;;;;4997989;28;20046;-82
2022/03/10 03:21:01;;;;;;;29.70;16.10;;;2.30;99.90;;;;;;4998002;28;20037;-82
2022/03/10 03:23:27;;;;;;;29.67;16.50;;;2.20;99.90;;;;;;4997921;28;20042;-82
2022/03/10 03:25:53;;;;;;;27.55;15.98;;;2.20;99.90;;;;;;4998009;28;20038;-81
2022/03/10 03:28:21;;;;;;;27.50;16.83;;;2.20;99.90;;;;;;4996673;28;20053;-81
2022/03/10 03:30:47;;;;;;;27.63;15.82;;;2.20;99.90;;;;;;4997898;28;20421;-81
2022/03/10 03:33:13;;;;;;;29.75;15.23;;;2.20;99.90;;;;;;4997986;28;20041;-81
2022/03/10 03:35:39;;;;;;;28.08;14.35;;;2.10;99.90;;;;;;4997687;28;20431;-81
2022/03/10 03:38:05;;;;;;;24.92;13.80;;;2.10;99.90;;;;;;4997676;28;20045;-81
2022/03/10 03:40:30;;;;;;;23.95;13.68;;;2.10;99.90;;;;;;4998022;28;20081;-81
2022/03/10 03:42:56;;;;;;;26.38;13.75;;;2.10;99.90;;;;;;4997581;28;20046;-82
2022/03/10 03:45:22;;;;;;;24.05;13.95;;;2.10;99.90;;;;;;4997425;28;20045;-81
2022/03/10 03:47:48;;;;;;;25.60;14.27;;;2.00;99.90;;;;;;4997723;28;20600;-81
2022/03/10 03:50:14;;;;;;;27.10;14.70;;;2.00;99.90;;;;;;4997392;28;20128;-81
2022/03/10 03:52:39;;;;;;;28.05;14.35;;;2.00;99.90;;;;;;4997647;28;20056;-81
2022/03/10 03:55:06;;;;;;;25.52;14.48;;;2.00;99.90;;;;;;4997640;28;20088;-82
2022/03/10 03:57:31;;;;;;;26.77;13.80;;;2.00;99.90;;;;;;4997450;28;20100;-81
2022/03/10 03:59:57;;;;;;;25.13;14.10;;;1.90;99.90;;;;;;4997242;28;20038;-81
2022/03/10 04:02:22;;;;;;;28.52;15.15;;;2.00;99.90;;;;;;4997462;28;20049;-81
2022/03/10 04:04:48;;;;;;;24.88;13.50;;;2.00;99.90;;;;;;4997481;28;20080;-81
2022/03/10 04:07:14;;;;;;;25.60;14.60;;;2.00;99.90;;;;;;4997166;28;20125;-81
2022/03/10 04:09:40;;;;;;;22.45;13.75;;;2.10;99.90;;;;;;4997450;28;20081;-80
2022/03/10 04:12:06;;;;;;;24.13;14.07;;;2.00;99.90;;;;;;4997377;28;20049;-81
2022/03/10 04:14:31;;;;;;;24.02;14.05;;;2.10;99.90;;;;;;4997204;28;20050;-81
2022/03/10 04:16:57;;;;;;;25.77;13.43;;;2.10;99.90;;;;;;4996989;28;20110;-81
2022/03/10 04:19:23;;;;;;;32.67;15.20;;;2.10;99.90;;;;;;4996905;28;20068;-81
2022/03/10 04:21:48;;;;;;;24.35;14.25;;;2.10;99.90;;;;;;4997215;28;20041;-81
2022/03/10 04:24:14;;;;;;;32.22;14.07;;;2.10;99.90;;;;;;4996895;28;20398;-81
2022/03/10 04:26:42;;;;;;;25.80;14.43;;;2.10;99.90;;;;;;4996906;28;20045;-81
2022/03/10 04:29:08;;;;;;;26.35;14.70;;;2.10;99.90;;;;;;4996792;28;20115;-81
2022/03/10 04:31:33;;;;;;;26.05;13.68;;;2.10;99.90;;;;;;4997009;28;20046;-82
2022/03/10 04:33:59;;;;;;;27.58;14.02;;;2.10;99.90;;;;;;4996767;28;20061;-81
2022/03/10 04:36:25;;;;;;;25.45;14.45;;;2.10;99.90;;;;;;4996661;28;20075;-80
2022/03/10 04:38:51;;;;;;;26.58;14.45;;;2.10;99.90;;;;;;4996454;28;20042;-81
2022/03/10 04:41:16;;;;;;;23.48;13.77;;;2.10;99.90;;;;;;4996783;28;20077;-81
2022/03/10 04:43:42;;;;;;;24.85;13.90;;;2.10;99.90;;;;;;4996717;28;20072;-77
2022/03/10 04:46:08;;;;;;;27.38;13.77;;;2.20;99.90;;;;;;4996719;28;20454;-76
2022/03/10 04:48:33;;;;;;;21.92;13.05;;;2.10;99.90;;;;;;4996706;28;20500;-76
2022/03/10 04:50:59;;;;;;;23.85;13.25;;;2.20;99.90;;;;;;4996901;28;20050;-76
2022/03/10 04:53:24;;;;;;;23.38;13.48;;;2.20;99.90;;;;;;5014067;28;20073;-76
2022/03/10 04:55:50;;;;;;;25.58;13.27;;;2.20;99.90;;;;;;4996309;28;20054;-76
2022/03/10 04:58:16;;;;;;;28.27;14.40;;;2.20;99.90;;;;;;4996547;28;20045;-76
2022/03/10 05:00:41;;;;;;;24.92;15.18;;;2.20;99.90;;;;;;4996383;28;20485;-76
2022/03/10 05:03:07;;;;;;;28.02;13.70;;;2.30;99.90;;;;;;4996331;28;20128;-76
2022/03/10 05:05:33;;;;;;;26.45;14.55;;;2.30;99.90;;;;;;4996452;28;20073;-77
2022/03/10 05:07:59;;;;;;;24.50;13.68;;;2.30;99.90;;;;;;4996558;28;20156;-77
2022/03/10 05:10:24;;;;;;;25.48;14.05;;;2.30;99.90;;;;;;4996368;28;20471;-77
2022/03/10 05:13:01;;;;;;;26.20;13.73;;;2.30;99.90;;;;;;4996154;28;20049;-77
2022/03/10 05:15:31;;;;;;;29.48;13.82;;;2.30;99.90;;;;;;4996415;28;20132;-76
2022/03/10 05:18:01;;;;;;;25.27;13.50;;;2.30;99.90;;;;;;4996124;28;20056;-76
2022/03/10 05:20:28;;;;;;;25.65;14.00;;;2.30;99.90;;;;;;4996811;28;20125;-76
2022/03/10 05:22:56;;;;;;;25.67;14.38;;;2.30;99.90;;;;;;4996103;28;20046;-76
2022/03/10 05:25:24;;;;;;;26.48;15.63;;;2.30;99.90;;;;;;4996417;28;20078;-76
2022/03/10 05:27:51;;;;;;;23.90;14.07;;;2.30;99.90;;;;;;4995888;28;20493;-76
2022/03/10 05:30:18;;;;;;;28.35;15.27;;;2.30;99.90;;;;;;4996063;28;20058;-77
2022/03/10 05:32:44;;;;;;;22.50;13.25;;;2.30;99.90;;;;;;4996013;28;20432;-77
2022/03/10 05:35:14;;;;;;;29.98;14.70;;;2.30;99.90;;;;;;4996328;28;20497;-77
2022/03/10 05:37:40;;;;;;;27.17;14.85;;;2.30;99.90;;;;;;4996111;28;20086;-77
2022/03/10 05:40:08;;;;;;;29.00;16.10;;;2.20;99.90;;;;;;4996212;28;20540;-77
2022/03/10 05:42:34;;;;;;;25.30;13.27;;;2.30;99.90;;;;;;4995917;28;20133;-77
2022/03/10 05:44:59;;;;;;;24.30;14.45;;;2.20;99.90;;;;;;4996191;28;20204;-77
2022/03/10 05:47:25;;;;;;;24.63;14.38;;;2.20;99.90;;;;;;5013329;28;20050;-77
2022/03/10 05:49:51;;;;;;;25.20;14.10;;;2.10;99.90;;;;;;4995952;28;20053;-77
2022/03/10 05:52:16;;;;;;;22.85;12.90;;;2.10;99.90;;;;;;4996842;28;20136;-77
2022/03/10 05:54:42;;;;;;;27.88;14.90;;;2.20;99.90;;;;;;4999175;28;20052;-77
2022/03/10 05:57:08;;;;;;;27.02;13.35;;;2.20;99.90;;;;;;4999381;28;20042;-77
2022/03/10 05:59:34;;;;;;;26.52;12.88;;;2.20;99.90;;;;;;4999603;28;20048;-77
2022/03/10 06:01:59;;;;;;;25.17;14.02;;;2.10;99.90;;;;;;4999557;28;20054;-77
2022/03/10 06:04:26;;;;;;;23.60;14.80;;;2.10;99.90;;;;;;4999522;28;20500;-76
2022/03/10 06:06:51;;;;;;;25.58;13.15;;;2.10;99.90;;;;;;4999424;28;20045;-77
2022/03/10 06:09:17;;;;;;;23.90;13.90;;;2.10;99.90;;;;;;4999191;28;20512;-77
2022/03/10 06:11:43;;;;;;;24.50;13.90;;;2.10;99.90;;;;;;4999195;28;20084;-77
2022/03/10 06:14:11;;;;;;;23.05;12.52;;;2.10;99.90;;;;;;4999377;28;20137;-77
2022/03/10 06:16:37;;;;;;;26.67;13.68;;;2.10;99.90;;;;;;4999191;28;20065;-77
2022/03/10 06:19:02;;;;;;;23.90;13.63;;;2.10;99.90;;;;;;4999221;28;20041;-76
2022/03/10 06:21:28;;;;;;;24.52;13.65;;;2.10;99.90;;;;;;4999165;28;20466;-77
2022/03/10 06:23:54;;;;;;;24.52;13.35;;;2.10;99.90;;;;;;4998906;28;20123;-76
2022/03/10 06:26:20;;;;;;;27.02;13.52;;;2.10;99.90;;;;;;4999217;28;20042;-76
2022/03/10 06:28:45;;;;;;;25.27;13.15;;;2.10;99.90;;;;;;4998724;28;20054;-76
2022/03/10 06:31:11;;;;;;;23.65;14.27;;;2.10;99.90;;;;;;4998876;28;20092;-76
2022/03/10 06:33:37;;;;;;;26.48;14.55;;;2.10;99.90;;;;;;4998988;28;20128;-76
2022/03/10 06:36:05;;;;;;;29.30;15.73;;;2.10;99.90;;;;;;4998669;28;20046;-76
2022/03/10 06:38:31;;;;;;;27.63;16.30;;;2.20;99.90;;;;;;4998779;28;20497;-76
2022/03/10 06:40:57;;;;;;;31.10;15.32;;;2.30;99.90;;;;;;4998883;28;20485;-76
2022/03/10 06:43:22;;;;;;;27.05;13.07;;;2.30;99.90;;;;;;4998761;28;20096;-76
2022/03/10 06:45:48;;;;;;;26.10;13.90;;;2.30;99.90;;;;;;4998558;28;20064;-76
2022/03/10 06:48:14;;;;;;;25.15;14.40;;;2.30;99.90;;;;;;4998521;28;20069;-77
2022/03/10 06:50:39;;;;;;;25.27;14.43;;;2.30;99.90;;;;;;4998613;28;20057;-76
2022/03/10 06:53:05;;;;;;;24.35;13.27;;;2.30;99.90;;;;;;4998714;28;20500;-77
2022/03/10 06:55:31;;;;;;;23.50;13.30;;;2.40;99.90;;;;;;4998333;28;20069;-76
2022/03/10 06:57:57;;;;;;;23.70;12.25;;;2.40;99.90;;;;;;4998404;28;20042;-76
2022/03/10 07:00:24;;;;;;;25.10;13.50;;;2.50;99.90;;;;;;4998317;28;20401;-76
2022/03/10 07:02:52;;;;;;;23.40;13.27;;;2.50;99.90;;;;;;4997989;28;20054;-77
2022/03/10 07:05:18;;;;;;;24.52;13.73;;;2.60;99.90;;;;;;4998118;28;20080;-76
2022/03/10 07:07:44;;;;;;;25.27;13.55;;;2.70;99.90;;;;;;4998430;28;20108;-77
2022/03/10 07:10:10;;;;;;;26.15;13.63;;;2.80;99.90;;;;;;4998262;28;20735;-77
2022/03/10 07:12:38;;;;;;;23.20;12.95;;;2.80;99.90;;;;;;5015920;28;20120;-77
2022/03/10 07:15:05;;;;;;;23.23;12.43;;;2.90;99.90;;;;;;4998214;28;20042;-77
2022/03/10 07:17:31;;;;;;;21.95;13.32;;;3.00;99.90;;;;;;4997917;28;20103;-78
2022/03/10 07:19:57;;;;;;;27.38;14.45;;;3.00;99.90;;;;;;4998175;28;20046;-78
2022/03/10 07:22:23;;;;;;;27.02;14.68;;;3.10;99.90;;;;;;4997983;28;20442;-79
2022/03/10 07:24:49;;;;;;;24.58;13.55;;;3.20;99.90;;;;;;4990112;28;20049;-77
2022/03/10 07:27:15;;;;;;;23.90;14.30;;;3.30;99.90;;;;;;4995498;28;20063;-77
2022/03/10 07:29:40;;;;;;;29.73;14.68;;;3.40;99.90;;;;;;4978108;28;20051;-77
2022/03/10 07:32:06;;;;;;;24.90;14.13;;;3.40;99.90;;;;;;4978303;28;20050;-77
2022/03/10 07:34:32;;;;;;;28.15;13.82;;;3.50;99.90;;;;;;4977876;28;20034;-77
2022/03/10 07:36:58;;;;;;;27.17;13.88;;;3.60;99.90;;;;;;4977800;28;20050;-77
2022/03/10 07:39:23;;;;;;;27.58;14.73;;;3.70;99.90;;;;;;4977771;28;20068;-83
2022/03/10 07:41:49;;;;;;;28.80;15.77;;;3.80;99.90;;;;;;4978092;28;20084;-83
2022/03/10 07:44:15;;;;;;;28.27;15.90;;;3.90;99.90;;;;;;4978052;28;20077;-83
2022/03/10 07:46:40;;;;;;;26.20;15.07;;;4.00;99.90;;;;;;4977929;28;20053;-84
2022/03/10 07:49:06;;;;;;;24.55;13.38;;;4.00;99.90;;;;;;4978259;28;20487;-85
2022/03/10 07:51:32;;;;;;;25.15;14.20;;;4.20;99.90;;;;;;4978000;28;20078;-83
2022/03/10 07:53:57;;;;;;;24.98;14.38;;;4.30;99.90;;;;;;4977885;28;20426;-82
2022/03/10 07:56:23;;;;;;;22.75;14.40;;;4.40;99.90;;;;;;4977552;28;20070;-81
2022/03/10 07:58:48;;;;;;;28.25;15.18;;;4.50;99.90;;;;;;4995271;28;20042;-82
2022/03/10 08:01:14;;;;;;;27.65;14.50;;;4.70;99.90;;;;;;4977362;28;20127;-82
2022/03/10 08:03:40;;;;;;;26.45;14.30;;;4.80;99.90;;;;;;4977387;28;20046;-83
2022/03/10 08:06:06;;;;;;;26.65;15.07;;;4.90;99.90;;;;;;4977835;28;20038;-85
2022/03/10 08:08:32;;;;;;;30.45;15.32;;;5.10;99.90;;;;;;4977854;28;20047;-82
2022/03/10 08:10:57;;;;;;;24.30;14.98;;;5.20;99.90;;;;;;4977505;28;20180;-85
2022/03/10 08:13:26;;;;;;;26.20;14.40;;;5.30;99.90;;;;;;4977424;28;20042;-83
2022/03/10 08:15:53;;;;;;;24.52;13.88;;;5.40;99.90;;;;;;4976849;28;20057;-83
2022/03/10 08:18:20;;;;;;;26.02;14.73;;;5.50;99.90;;;;;;4977110;28;20379;-84
2022/03/10 08:20:46;;;;;;;22.33;14.35;;;5.60;99.90;;;;;;4977329;28;20038;-84
2022/03/10 08:23:12;;;;;;;26.52;14.63;;;5.70;99.90;;;;;;4977314;28;20125;-86
2022/03/10 08:25:38;;;;;;;26.75;14.95;;;5.90;99.90;;;;;;4977493;28;20133;-86
2022/03/10 08:28:05;;;;;;;25.77;14.80;;;6.00;99.90;;;;;;4977115;28;20065;-85
2022/03/10 08:30:31;;;;;;;24.60;14.20;;;6.00;99.90;;;;;;4977036;28;20054;-85
2022/03/10 08:32:57;;;;;;;27.85;14.43;;;6.20;99.90;;;;;;4977114;28;20046;-85
2022/03/10 08:35:23;;;;;;;27.05;14.45;;;6.30;99.90;;;;;;4977341;28;20057;-86
2022/03/10 08:37:50;;;;;;;22.80;14.13;;;6.40;99.90;;;;;;4976950;28;20402;-86
2022/03/10 08:40:17;;;;;;;26.92;14.90;;;6.60;99.90;;;;;;4977214;28;20185;-85
2022/03/10 08:42:43;;;;;;;25.85;14.48;;;6.70;99.90;;;;;;4977168;28;20549;-85
2022/03/10 08:45:09;;;;;;;27.83;15.20;;;6.80;99.90;;;;;;4977210;28;20516;-85
2022/03/10 08:47:35;;;;;;;28.42;14.68;;;6.90;99.90;;;;;;4976991;28;20039;-85
2022/03/10 08:50:01;;;;;;;27.90;16.02;;;7.00;99.90;;;;;;4976947;28;20050;-84
2022/03/10 08:52:26;;;;;;;25.00;14.60;;;7.20;99.90;;;;;;4977115;28;20042;-86
2022/03/10 08:54:52;;;;;;;28.88;14.68;;;7.20;99.90;;;;;;4976894;28;20537;-87
2022/03/10 08:57:18;;;;;;;25.50;14.82;;;7.30;99.90;;;;;;4977158;28;20050;-86
2022/03/10 08:59:45;;;;;;;28.60;15.63;;;7.40;99.90;;;;;;4976945;28;20125;-86
2022/03/10 09:02:12;;;;;;;27.05;14.43;;;7.50;99.90;;;;;;4976949;28;20054;-86
2022/03/10 09:04:38;;;;;;;28.52;15.73;;;7.60;99.90;;;;;;4976893;28;20481;-87
2022/03/10 09:07:04;;;;;;;26.45;15.35;;;7.70;99.90;;;;;;4976748;28;20050;-85
2022/03/10 09:09:30;;;;;;;28.02;15.88;;;7.80;99.90;;;;;;4976598;28;20054;-85
2022/03/10 09:11:56;;;;;;;22.92;13.82;;;8.00;99.90;;;;;;4976533;28;20093;-85
2022/03/10 09:14:22;;;;;;;24.35;14.40;;;8.10;99.90;;;;;;4976488;28;20051;-85
2022/03/10 09:16:48;;;;;;;26.05;15.85;;;8.20;99.90;;;;;;4976516;28;20054;-85
2022/03/10 09:19:13;;;;;;;23.33;13.57;;;8.30;99.30;;;;;;4976631;28;20042;-85
2022/03/10 09:21:39;;;;;;;25.27;15.23;;;8.40;99.10;;;;;;4976426;28;20082;-84
2022/03/10 09:24:05;;;;;;;23.02;14.68;;;8.50;98.70;;;;;;4976657;28;20089;-85
2022/03/10 09:26:31;;;;;;;27.33;15.00;;;8.60;99.70;;;;;;4979065;28;20464;-85
2022/03/10 09:28:56;;;;;;;23.15;14.20;;;8.80;98.30;;;;;;4980606;28;20546;-85
2022/03/10 09:31:22;;;;;;;25.00;14.85;;;8.90;98.10;;;;;;4980241;28;20042;-85
2022/03/10 09:33:48;;;;;;;26.73;14.88;;;9.10;96.80;;;;;;4980389;28;20049;-85
2022/03/10 09:36:14;;;;;;;27.05;14.52;;;9.20;96.80;;;;;;4980478;28;20045;-85
2022/03/10 09:38:40;;;;;;;27.10;16.33;;;9.30;98.40;;;;;;4980372;28;20093;-84
2022/03/10 09:41:05;;;;;;;25.08;15.23;;;9.30;94.80;;;;;;4980203;28;20070;-85
2022/03/10 09:43:33;;;;;;;26.85;15.57;;;9.40;94.10;;;;;;4980588;28;20097;-84
2022/03/10 09:46:00;;;;;;;24.42;15.05;;;9.50;94.80;;;;;;4980388;28;20038;-83
2022/03/10 09:48:26;;;;;;;24.65;15.65;;;9.60;97.00;;;;;;4979937;28;20417;-84
2022/03/10 09:50:52;;;;;;;26.70;15.35;;;9.80;95.90;;;;;;4979880;28;20398;-84
2022/03/10 09:53:20;;;;;;;27.10;15.32;;;9.80;94.40;;;;;;4979938;28;20478;-84
2022/03/10 09:55:46;;;;;;;26.27;15.45;;;9.90;96.20;;;;;;4980108;28;20054;-84
2022/03/10 09:58:12;;;;;;;24.63;15.18;;;10.00;95.80;;;;;;4979396;28;20052;-83
2022/03/10 10:00:41;;;;;;;23.35;14.70;;;10.00;94.40;;;;;;4979355;28;20151;-84
2022/03/10 10:03:06;;;;;;;25.58;14.98;;;10.20;93.90;;;;;;4979834;28;20498;-84
2022/03/10 10:05:38;;;;;;;24.45;15.48;;;10.30;95.80;;;;;;4979881;28;20129;-84
2022/03/10 10:08:09;;;;;;;28.08;16.35;;;10.50;93.50;;;;;;4979916;28;20050;-84
2022/03/10 10:10:39;;;;;;;25.63;15.93;;;10.60;93.50;;;;;;4979564;28;20081;-84
2022/03/10 10:13:06;;;;;;;25.33;14.90;;;10.70;92.20;;;;;;4979923;28;20042;-84
2022/03/10 10:15:40;;;;;;;24.08;15.00;;;10.80;92.90;;;;;;4979710;28;20053;-84
2022/03/10 10:18:14;;;;;;;23.60;15.95;;;11.00;92.10;;;;;;4979520;28;20494;-84
2022/03/10 10:20:49;;;;;;;27.17;16.30;;;11.10;90.90;;;;;;4979958;28;20153;-84
2022/03/10 10:23:29;;;;;;;29.65;15.75;;;11.30;92.70;;;;;;4979540;28;20057;-84
2022/03/10 10:26:01;;;;;;;26.43;16.17;;;11.50;95.30;;;;;;4979561;28;20077;-84
2022/03/10 10:28:41;;;;;;;25.35;15.93;;;11.60;88.00;;;;;;4979037;28;20293;-83
2022/03/10 10:31:17;;;;;;;26.02;15.60;;;11.70;89.30;;;;;;4979701;28;20073;-85
2022/03/10 10:33:56;;;;;;;27.83;18.33;;;11.70;88.20;;;;;;4979391;28;20088;-86
2022/03/10 10:36:26;;;;;;;24.98;15.95;;;11.80;86.50;;;;;;4979242;28;20057;-86
2022/03/10 10:38:54;;;;;;;27.38;16.77;;;11.80;85.10;;;;;;4979029;28;20053;-86
2022/03/10 10:41:29;;;;;;;28.05;16.25;;;11.70;83.50;;;;;;4978967;28;20077;-86
2022/03/10 10:44:01;;;;;;;24.98;16.02;;;11.50;82.90;;;;;;4979097;28;20069;-86
2022/03/10 10:46:30;;;;;;;27.15;16.58;;;11.40;82.50;;;;;;4979124;28;20130;-86
2022/03/10 10:48:57;;;;;;;27.77;16.98;;;11.20;82.60;;;;;;4978934;28;20053;-86
2022/03/10 10:51:34;;;;;;;31.38;17.20;;;11.10;84.00;;;;;;4979380;28;20473;-86
2022/03/10 10:54:06;;;;;;;28.98;17.52;;;11.10;86.50;;;;;;4979190;28;20042;-85
2022/03/10 10:56:45;;;;;;;28.48;17.23;;;11.20;87.40;;;;;;4979105;28;20042;-85
2022/03/10 10:59:29;;;;;;;29.35;17.25;;;11.50;87.90;;;;;;4978920;28;20062;-86
2022/03/10 11:02:18;;;;;;;28.45;17.05;;;11.60;83.10;;;;;;4979267;28;20042;-86
2022/03/10 11:04:49;;;;;;;27.60;16.85;;;11.90;84.60;;;;;;4978685;28;20057;-86
2022/03/10 11:07:16;;;;;;;27.30;17.38;;;12.20;85.20;;;;;;4979180;28;20056;-85
2022/03/10 11:10:02;;;;;;;29.13;17.08;;;12.30;82.60;;;;;;4978744;28;20482;-85
2022/03/10 11:12:28;;;;;;;27.60;17.10;;;12.50;82.90;;;;;;4978886;28;20073;-85
2022/03/10 11:14:57;;;;;;;29.73;17.55;;;12.50;79.20;;;;;;4978535;28;20044;-85
2022/03/10 11:17:24;;;;;;;30.45;18.33;;;12.70;80.90;;;;;;4978250;28;20053;-85
2022/03/10 11:19:54;;;;;;;28.98;16.80;;;12.80;81.70;;;;;;4978473;28;20053;-84
2022/03/10 11:22:48;;;;;;;28.52;17.60;;;12.80;77.10;;;;;;4978638;28;20077;-84
2022/03/10 11:25:22;;;;;;;31.00;17.95;;;12.90;75.00;;;;;;4978880;28;20120;-84
2022/03/10 11:27:55;;;;;;;26.92;17.23;;;13.00;77.00;;;;;;4978515;28;20486;-85
2022/03/10 11:30:28;;;;;;;31.67;17.45;;;13.00;75.10;;;;;;4978170;28;20054;-85
2022/03/10 11:33:09;;;;;;;29.15;18.27;;;13.10;73.50;;;;;;4978313;28;20038;-84
2022/03/10 11:35:43;;;;;;;27.25;16.50;;;13.20;73.40;;;;;;4978590;28;20046;-84
2022/03/10 11:38:10;;;;;;;29.10;18.58;;;13.20;71.90;;;;;;4978081;28;20052;-85
2022/03/10 11:40:56;;;;;;;32.78;18.48;;;13.10;70.10;;;;;;4977887;28;20053;-86
2022/03/10 11:43:34;;;;;;;30.23;18.13;;;13.00;70.70;;;;;;4995749;28;20046;-83
2022/03/10 11:46:24;;;;;;;31.60;17.42;;;13.00;72.60;;;;;;4978039;28;20525;-83
2022/03/10 11:49:12;;;;;;;28.13;18.30;;;13.10;72.80;;;;;;4977293;28;20050;-81
2022/03/10 11:51:54;;;;;;;30.55;17.83;;;13.20;67.40;;;;;;4995442;28;20799;-82
2022/03/10 11:54:27;;;;;;;25.98;16.35;;;13.20;69.90;;;;;;4995166;28;20042;-82
2022/03/10 11:56:54;;;;;;;29.83;19.55;;;13.20;68.30;;;;;;4995021;28;20494;-81
2022/03/10 11:59:31;;;;;;;29.30;16.77;;;13.30;68.30;;;;;;4977861;28;20561;-80
2022/03/10 12:02:00;;;;;;;29.52;18.80;;;13.50;67.90;;;;;;4977869;28;20050;-77
2022/03/10 12:04:39;;;;;;;31.77;18.35;;;13.50;65.30;;;;;;4994951;28;20069;-77
2022/03/10 12:07:08;;;;;;;28.92;17.70;;;13.50;64.60;;;;;;4995105;28;20043;-78
2022/03/10 12:09:39;;;;;;;31.13;18.35;;;13.40;63.60;;;;;;4977309;28;20108;-78
2022/03/10 12:12:17;;;;;;;30.52;19.45;;;13.40;68.40;;;;;;4994858;28;20054;-77
2022/03/10 12:14:44;;;;;;;28.65;17.20;;;13.30;65.90;;;;;;4994799;28;20177;-77
2022/03/10 12:17:45;;;;;;;27.52;17.42;;;13.20;64.70;;;;;;4977330;28;20422;-78
2022/03/10 12:20:18;;;;;;;27.85;18.30;;;13.10;64.70;;;;;;4896854;29;20084;-77
2022/03/10 12:23:07;;;;;;;28.92;18.10;;;13.10;63.80;;;;;;4979162;28;20544;-77
2022/03/10 12:25:51;;;;;;;28.50;17.38;;;13.20;66.50;;;;;;4963485;28;20465;-78
2022/03/10 12:28:33;;;;;;;27.98;17.13;;;13.30;65.50;;;;;;4976985;28;20433;-77
2022/03/10 12:31:09;;;;;;;29.90;16.95;;;13.50;64.40;;;;;;4994734;28;20054;-78
2022/03/10 12:33:44;;;;;;;28.67;17.38;;;13.60;62.20;;;;;;4977903;28;20065;-78
2022/03/10 12:36:10;;;;;;;32.60;18.77;;;13.70;60.60;;;;;;4976878;28;20054;-77
2022/03/10 12:38:37;;;;;;;28.52;17.70;;;13.80;60.10;;;;;;4977380;28;20050;-78
2022/03/10 12:41:03;;;;;;;29.23;18.17;;;13.90;65.40;;;;;;4994261;28;20469;-78
2022/03/10 12:43:28;;;;;;;30.05;18.83;;;13.90;61.80;;;;;;4994503;28;20545;-77
2022/03/10 12:45:55;;;;;;;28.38;17.38;;;13.90;59.90;;;;;;4994497;28;20092;-77
2022/03/10 12:49:01;;;;;;;27.83;18.08;;;13.90;62.80;;;;;;4976838;28;20042;-78